Time;durP1;ratioP1;P1;durP2;ratioP2;P2;SDS_P1;SDS_P2;PMS_P1;PMS_P2;Temp;Humidity;BMP_temperature;BMP_pressure;BME280_temperature;BME280_humidity;BME280_pressure;Samples;Min_cycle;Max_cycle;Signal;HPM_P1;HPM_P2
2022/08/26 00:00:25;;;;;;;25.48;14.65;;;21.80;99.90;;;;;;4898748;29;20389;-78
2022/08/26 00:02:51;;;;;;;22.38;14.98;;;21.80;99.90;;;;;;4898284;29;20400;-78
2022/08/26 00:05:16;;;;;;;23.15;14.40;;;21.80;99.90;;;;;;4881959;29;20136;-78
2022/08/26 00:07:42;;;;;;;22.73;14.10;;;21.80;99.90;;;;;;4881691;29;20059;-78
2022/08/26 00:10:08;;;;;;;21.05;13.80;;;21.80;99.90;;;;;;4881651;29;20377;-78
2022/08/26 00:12:34;;;;;;;26.83;13.73;;;21.80;99.90;;;;;;4898535;29;20053;-78
2022/08/26 00:15:00;;;;;;;20.08;13.30;;;21.70;99.90;;;;;;4898668;29;20064;-78
2022/08/26 00:17:26;;;;;;;27.70;13.93;;;21.60;99.90;;;;;;4882208;29;20056;-79
2022/08/26 00:19:52;;;;;;;21.15;13.73;;;21.60;99.90;;;;;;4898594;29;20052;-79
2022/08/26 00:22:18;;;;;;;22.83;13.48;;;21.60;99.90;;;;;;4898561;29;20067;-78
2022/08/26 00:24:43;;;;;;;27.67;17.27;;;21.60;99.90;;;;;;4881522;29;20392;-78
2022/08/26 00:27:09;;;;;;;26.25;15.05;;;21.50;99.90;;;;;;4881626;29;20053;-77
2022/08/26 00:29:35;;;;;;;24.45;13.80;;;21.50;99.90;;;;;;4881647;29;20060;-78
2022/08/26 00:32:01;;;;;;;23.45;14.07;;;21.50;99.90;;;;;;4881511;29;20055;-77
2022/08/26 00:34:27;;;;;;;19.77;13.80;;;21.50;99.90;;;;;;4881929;29;20092;-77
2022/08/26 00:36:53;;;;;;;20.10;12.02;;;21.50;99.90;;;;;;4898167;29;20064;-77
2022/08/26 00:39:19;;;;;;;24.88;13.50;;;21.50;99.90;;;;;;4898155;29;20053;-78
2022/08/26 00:41:45;;;;;;;21.33;12.55;;;21.50;99.90;;;;;;4898387;29;20072;-78
2022/08/26 00:44:11;;;;;;;24.15;12.98;;;21.40;99.90;;;;;;4882064;29;20476;-78
2022/08/26 00:46:43;;;;;;;24.83;14.05;;;21.50;99.90;;;;;;4881634;29;20060;-78
2022/08/26 00:49:13;;;;;;;23.67;13.43;;;21.50;99.90;;;;;;4898383;29;20045;-77
2022/08/26 00:51:46;;;;;;;22.27;13.65;;;21.50;99.90;;;;;;4898164;29;20502;-78
2022/08/26 00:54:11;;;;;;;;;;;21.50;99.90;;;;;;4881821;29;20484;-78
2022/08/26 00:56:48;;;;;;;25.73;14.07;;;21.50;99.90;;;;;;4881445;29;19923;-78
2022/08/26 00:59:16;;;;;;;27.27;14.43;;;21.50;99.90;;;;;;4881463;29;20045;-79
2022/08/26 01:01:43;;;;;;;27.98;15.85;;;21.40;99.90;;;;;;4898132;29;20048;-78
2022/08/26 01:04:12;;;;;;;23.40;13.95;;;21.40;99.90;;;;;;4898282;29;20107;-77
2022/08/26 01:06:38;;;;;;;27.00;15.80;;;21.40;99.90;;;;;;4881522;29;20500;-77
2022/08/26 01:09:04;;;;;;;24.63;14.70;;;21.40;99.90;;;;;;4881322;29;20080;-77
2022/08/26 01:11:30;;;;;;;25.98;13.88;;;21.40;99.90;;;;;;4898206;29;20139;-77
2022/08/26 01:13:58;;;;;;;28.40;14.65;;;21.40;99.90;;;;;;4898754;29;20057;-78
2022/08/26 01:16:24;;;;;;;26.55;15.73;;;21.40;99.90;;;;;;4884834;29;20044;-78
2022/08/26 01:18:54;;;;;;;22.42;13.40;;;21.50;99.90;;;;;;4901412;29;20051;-78
2022/08/26 01:21:54;;;;;;;28.23;14.20;;;21.50;99.90;;;;;;4901586;29;20077;-78
2022/08/26 01:24:19;;;;;;;26.73;14.48;;;21.40;99.90;;;;;;4887952;29;20065;-78
2022/08/26 01:26:45;;;;;;;27.13;14.65;;;21.40;99.90;;;;;;4901421;29;20068;-77
2022/08/26 01:29:16;;;;;;;25.52;14.88;;;21.40;99.90;;;;;;4901442;29;20130;-77
2022/08/26 01:31:50;;;;;;;23.73;13.75;;;21.40;99.90;;;;;;4901411;29;20040;-77
2022/08/26 01:34:19;;;;;;;23.92;14.90;;;21.40;99.90;;;;;;4884480;29;20052;-77
2022/08/26 01:36:46;;;;;;;27.63;14.13;;;21.40;99.90;;;;;;4884284;29;20069;-78
2022/08/26 01:39:12;;;;;;;23.95;13.95;;;21.40;99.90;;;;;;4901113;29;20053;-77
2022/08/26 01:41:39;;;;;;;21.95;13.48;;;21.40;99.90;;;;;;4884250;29;20055;-77
2022/08/26 01:44:07;;;;;;;26.27;14.07;;;21.40;99.90;;;;;;4884267;29;20052;-78
2022/08/26 01:46:33;;;;;;;23.45;13.07;;;21.40;99.90;;;;;;4901068;29;20082;-77
2022/08/26 01:49:03;;;;;;;22.05;12.40;;;21.40;99.90;;;;;;4901035;29;20127;-77
2022/08/26 01:51:30;;;;;;;20.17;12.05;;;21.40;99.90;;;;;;4884236;29;20056;-78
2022/08/26 01:53:56;;;;;;;24.42;13.85;;;21.50;99.90;;;;;;4900959;29;20129;-77
2022/08/26 01:56:23;;;;;;;22.15;12.40;;;21.40;99.90;;;;;;4883915;29;20446;-77
2022/08/26 01:58:56;;;;;;;29.48;12.93;;;21.40;99.90;;;;;;4884106;29;20056;-78
2022/08/26 02:01:24;;;;;;;21.30;11.82;;;21.40;99.90;;;;;;4883967;29;20132;-78
2022/08/26 02:04:17;;;;;;;18.17;10.00;;;21.40;99.90;;;;;;4883939;29;20104;-78
2022/08/26 02:06:44;;;;;;;19.92;10.65;;;21.40;99.90;;;;;;4884014;29;20076;-77
2022/08/26 02:09:10;;;;;;;25.15;13.07;;;21.40;99.90;;;;;;4884030;29;20049;-78
2022/08/26 02:11:37;;;;;;;19.88;9.95;;;21.40;99.90;;;;;;4883797;29;20051;-78
2022/08/26 02:14:08;;;;;;;22.98;10.90;;;21.30;99.90;;;;;;4900559;29;20559;-77
2022/08/26 02:16:38;;;;;;;23.65;12.05;;;21.40;99.90;;;;;;4884027;29;20497;-77
2022/08/26 02:19:08;;;;;;;18.00;10.77;;;21.30;99.90;;;;;;4883927;29;20048;-78
2022/08/26 02:21:34;;;;;;;20.83;11.05;;;21.30;99.90;;;;;;4883737;29;20060;-77
2022/08/26 02:24:16;;;;;;;15.95;10.27;;;21.30;99.90;;;;;;4883839;29;20132;-78
2022/08/26 02:26:43;;;;;;;17.40;9.90;;;21.30;99.90;;;;;;4900162;29;20108;-78
2022/08/26 02:29:18;;;;;;;20.13;10.20;;;21.30;99.90;;;;;;4883512;29;20049;-77
2022/08/26 02:31:44;;;;;;;16.65;11.07;;;21.40;99.90;;;;;;4900623;29;20048;-77
2022/08/26 02:34:12;;;;;;;20.25;10.90;;;21.30;99.90;;;;;;4900281;29;20052;-78
2022/08/26 02:36:39;;;;;;;21.10;11.02;;;21.40;99.90;;;;;;4883476;29;20063;-78
2022/08/26 02:39:05;;;;;;;19.02;11.85;;;21.40;99.90;;;;;;4883514;29;20075;-78
2022/08/26 02:41:31;;;;;;;21.52;11.32;;;21.40;99.90;;;;;;4900188;29;20130;-79
2022/08/26 02:43:57;;;;;;;17.98;10.85;;;21.40;99.90;;;;;;4900029;29;20032;-78
2022/08/26 02:46:22;;;;;;;19.10;10.55;;;21.30;99.90;;;;;;4900298;29;20044;-78
2022/08/26 02:48:48;;;;;;;22.25;9.90;;;21.30;99.90;;;;;;4883303;29;20048;-78
2022/08/26 02:51:14;;;;;;;18.25;10.45;;;21.30;99.90;;;;;;4899909;29;20057;-78
2022/08/26 02:53:40;;;;;;;18.63;11.77;;;21.30;99.90;;;;;;4883070;29;20056;-78
2022/08/26 02:56:09;;;;;;;15.73;9.70;;;21.30;99.90;;;;;;4899906;29;20084;-78
2022/08/26 02:58:35;;;;;;;21.90;9.93;;;21.30;99.90;;;;;;4899499;29;20488;-77
2022/08/26 03:01:01;;;;;;;19.48;10.75;;;21.30;99.90;;;;;;4900064;29;20143;-77
2022/08/26 03:03:26;;;;;;;14.60;8.93;;;21.30;99.90;;;;;;4882784;29;20092;-78
2022/08/26 03:05:53;;;;;;;17.45;8.57;;;21.30;99.90;;;;;;4882935;29;20510;-78
2022/08/26 03:08:19;;;;;;;13.95;8.55;;;21.30;99.90;;;;;;4899637;29;20131;-78
2022/08/26 03:10:46;;;;;;;16.30;8.45;;;21.20;99.90;;;;;;4899577;29;20045;-77
2022/08/26 03:13:12;;;;;;;18.63;8.00;;;21.20;99.90;;;;;;4882575;29;20052;-77
2022/08/26 03:15:38;;;;;;;15.55;7.93;;;21.20;99.90;;;;;;4899551;29;20045;-78
2022/08/26 03:18:05;;;;;;;18.77;8.32;;;21.10;99.90;;;;;;4899483;29;20100;-78
2022/08/26 03:20:32;;;;;;;16.63;8.50;;;21.10;99.90;;;;;;4899313;29;20056;-78
2022/08/26 03:22:57;;;;;;;16.67;7.97;;;21.10;99.90;;;;;;4882852;29;20052;-78
2022/08/26 03:25:24;;;;;;;12.32;7.70;;;21.00;99.90;;;;;;4899270;29;20069;-78
2022/08/26 03:27:51;;;;;;;15.85;8.00;;;21.10;99.90;;;;;;4882352;29;20049;-78
2022/08/26 03:33:01;;;;;;;14.38;7.55;;;21.10;99.90;;;;;;4899271;29;20063;-77
2022/08/26 03:35:27;;;;;;;16.98;7.10;;;21.10;99.90;;;;;;4882368;29;20049;-77
2022/08/26 03:37:53;;;;;;;15.13;6.53;;;21.10;99.90;;;;;;4897926;29;20116;-77
2022/08/26 03:40:19;;;;;;;14.65;7.25;;;21.00;99.90;;;;;;4898960;29;20127;-77
2022/08/26 03:42:45;;;;;;;16.67;8.38;;;21.10;99.90;;;;;;4899118;29;20048;-77
2022/08/26 03:45:13;;;;;;;11.95;7.00;;;21.10;99.90;;;;;;4899050;29;20052;-77
2022/08/26 03:47:39;;;;;;;20.60;7.63;;;21.00;99.90;;;;;;4898944;29;20139;-77
2022/08/26 03:50:07;;;;;;;18.70;6.93;;;21.00;99.90;;;;;;4898907;29;20530;-78
2022/08/26 03:52:33;;;;;;;14.73;6.40;;;21.00;99.90;;;;;;4898951;29;20048;-78
2022/08/26 03:54:59;;;;;;;16.20;6.05;;;21.00;99.90;;;;;;4898626;29;20412;-78
2022/08/26 03:57:24;;;;;;;15.85;6.55;;;20.90;99.90;;;;;;4882183;29;20495;-77
2022/08/26 03:59:50;;;;;;;16.27;6.45;;;20.90;99.90;;;;;;4898759;29;20469;-77
2022/08/26 04:02:16;;;;;;;15.02;6.65;;;20.90;99.90;;;;;;4898699;29;20048;-78
2022/08/26 04:04:41;;;;;;;14.98;5.82;;;20.90;99.90;;;;;;4897938;29;20112;-77
2022/08/26 04:07:07;;;;;;;12.07;5.25;;;20.90;99.90;;;;;;4898616;29;20426;-77
2022/08/26 04:09:33;;;;;;;16.58;5.95;;;20.90;99.90;;;;;;4898513;29;20048;-78
2022/08/26 04:11:58;;;;;;;15.30;6.32;;;20.90;99.90;;;;;;4881734;29;20049;-79
2022/08/26 04:14:26;;;;;;;16.48;6.22;;;20.90;99.90;;;;;;4898660;29;20069;-78
2022/08/26 04:16:53;;;;;;;13.43;6.38;;;20.80;99.90;;;;;;4898567;29;20409;-77
2022/08/26 04:19:19;;;;;;;18.83;6.85;;;20.80;99.90;;;;;;4898543;29;20044;-77
2022/08/26 04:21:47;;;;;;;16.23;5.68;;;20.80;99.90;;;;;;4898510;29;20503;-77
2022/08/26 04:24:14;;;;;;;14.95;5.80;;;20.70;99.90;;;;;;4881379;29;20136;-77
2022/08/26 04:26:41;;;;;;;15.73;6.65;;;20.80;99.90;;;;;;4897736;29;20075;-78
2022/08/26 04:29:11;;;;;;;12.25;5.35;;;20.80;99.90;;;;;;4881741;29;20131;-78
2022/08/26 04:31:38;;;;;;;12.88;5.45;;;20.90;99.90;;;;;;4882083;29;20041;-79
2022/08/26 04:34:04;;;;;;;13.52;5.53;;;20.90;99.90;;;;;;4898447;29;20072;-77
2022/08/26 04:36:30;;;;;;;16.50;6.00;;;20.90;99.90;;;;;;4898458;29;20668;-78
2022/08/26 04:38:59;;;;;;;14.75;6.10;;;20.80;99.90;;;;;;4898349;29;20060;-78
2022/08/26 04:41:25;;;;;;;13.80;6.05;;;20.80;99.90;;;;;;4898384;29;20052;-78
2022/08/26 04:43:51;;;;;;;14.43;5.40;;;20.80;99.90;;;;;;4896847;29;20052;-78
2022/08/26 04:46:24;;;;;;;9.77;4.28;;;20.90;99.90;;;;;;4898070;29;20052;-77
2022/08/26 04:48:51;;;;;;;14.50;4.75;;;20.80;99.90;;;;;;4900065;29;20083;-78
2022/08/26 04:51:19;;;;;;;13.23;4.80;;;20.80;99.90;;;;;;4902113;29;20162;-78
2022/08/26 04:53:45;;;;;;;13.00;5.30;;;20.90;99.90;;;;;;4901129;29;20088;-78
2022/08/26 04:56:11;;;;;;;16.77;4.95;;;20.80;99.90;;;;;;4884900;29;20127;-79
2022/08/26 04:58:37;;;;;;;13.27;3.88;;;20.80;99.90;;;;;;4885136;29;20049;-78
2022/08/26 05:01:03;;;;;;;11.75;4.05;;;20.80;99.90;;;;;;4901629;29;20051;-78
2022/08/26 05:03:29;;;;;;;13.20;4.25;;;20.80;99.90;;;;;;4885142;29;20761;-78
2022/08/26 05:05:55;;;;;;;12.50;4.85;;;20.80;99.90;;;;;;4901521;29;20176;-78
2022/08/26 05:08:22;;;;;;;9.18;3.72;;;20.80;99.90;;;;;;4901560;29;20127;-78
2022/08/26 05:10:55;;;;;;;14.32;3.65;;;20.80;99.90;;;;;;4884963;29;20044;-78
2022/08/26 05:13:23;;;;;;;9.70;3.63;;;20.80;99.90;;;;;;4884877;29;20086;-78
2022/08/26 05:15:49;;;;;;;13.07;3.30;;;20.80;99.90;;;;;;4901496;29;20132;-78
2022/08/26 05:18:17;;;;;;;11.68;3.65;;;20.80;99.90;;;;;;4901306;29;20503;-78
2022/08/26 05:20:46;;;;;;;10.02;3.45;;;20.80;99.90;;;;;;4884441;29;20096;-78
2022/08/26 05:23:13;;;;;;;11.40;3.22;;;20.80;99.90;;;;;;4901381;29;20123;-78
2022/08/26 05:25:41;;;;;;;10.63;2.85;;;20.80;99.90;;;;;;4901512;29;20077;-78
2022/08/26 05:28:12;;;;;;;14.30;2.83;;;20.80;99.90;;;;;;4901509;29;20115;-77
2022/08/26 05:30:38;;;;;;;10.60;3.25;;;20.80;99.90;;;;;;4901206;29;20040;-78
2022/08/26 05:33:05;;;;;;;12.63;2.58;;;20.80;99.90;;;;;;4901423;29;20044;-78
2022/08/26 05:35:33;;;;;;;8.70;3.10;;;20.80;99.90;;;;;;4884345;29;20052;-78
2022/08/26 05:38:04;;;;;;;10.05;3.25;;;20.80;99.90;;;;;;4900847;29;20504;-78
2022/08/26 05:40:34;;;;;;;11.45;3.28;;;20.80;99.90;;;;;;4884149;29;20049;-78
2022/08/26 05:43:09;;;;;;;9.77;3.10;;;20.80;99.90;;;;;;4884036;29;20054;-79
2022/08/26 05:45:56;;;;;;;10.15;2.97;;;20.80;99.90;;;;;;4884187;29;20125;-78
2022/08/26 05:48:22;;;;;;;7.60;2.67;;;20.80;99.90;;;;;;4900834;29;20135;-78
2022/08/26 05:50:50;;;;;;;11.27;3.05;;;20.80;99.90;;;;;;4901084;29;20127;-78
2022/08/26 05:53:19;;;;;;;11.48;3.33;;;20.80;99.90;;;;;;4900867;29;20477;-78
2022/08/26 05:55:51;;;;;;;11.00;3.90;;;20.80;99.90;;;;;;4884172;29;20052;-79
2022/08/26 05:58:21;;;;;;;7.65;2.45;;;20.70;99.90;;;;;;4900961;29;20044;-79
2022/08/26 06:01:03;;;;;;;10.90;2.97;;;20.80;99.90;;;;;;4883159;29;20084;-78
2022/08/26 06:03:29;;;;;;;14.65;2.50;;;20.70;99.90;;;;;;4900830;29;20048;-79
2022/08/26 06:05:55;;;;;;;6.57;1.98;;;20.70;99.90;;;;;;4900729;29;20044;-79
2022/08/26 06:08:21;;;;;;;7.97;2.40;;;20.80;99.90;;;;;;4900722;29;20148;-79
2022/08/26 06:10:48;;;;;;;9.85;2.28;;;20.70;99.90;;;;;;4883673;29;20049;-79
2022/08/26 06:13:19;;;;;;;12.23;2.72;;;20.70;99.90;;;;;;4900573;29;20053;-78
2022/08/26 06:28:06;;;;;;;16.55;2.75;;;20.70;99.90;;;;;;4900381;29;20055;-77
2022/08/26 06:30:36;;;;;;;15.90;3.10;;;20.70;99.90;;;;;;4900132;29;20084;-79
2022/08/26 06:33:02;;;;;;;18.10;4.00;;;20.70;99.90;;;;;;4900319;29;20049;-79
2022/08/26 06:35:28;;;;;;;15.73;3.25;;;20.70;99.90;;;;;;4899097;29;20063;-80
2022/08/26 06:37:54;;;;;;;14.75;2.88;;;20.60;99.90;;;;;;4900239;29;20405;-78
2022/08/26 06:40:23;;;;;;;16.40;2.90;;;20.50;99.90;;;;;;4900139;29;20095;-79
2022/08/26 06:42:48;;;;;;;14.65;3.17;;;20.50;99.90;;;;;;4883372;29;20044;-79
2022/08/26 06:45:14;;;;;;;13.13;2.50;;;20.50;99.90;;;;;;4899808;29;20586;-79
2022/08/26 06:47:40;;;;;;;12.85;2.25;;;20.40;99.90;;;;;;4883249;29;20135;-79
2022/08/26 06:50:06;;;;;;;8.45;1.73;;;20.40;99.90;;;;;;4899683;29;20064;-79
2022/08/26 06:52:32;;;;;;;13.32;2.15;;;20.40;99.90;;;;;;4883206;29;20056;-78
2022/08/26 06:54:57;;;;;;;14.43;2.60;;;20.40;99.90;;;;;;4899937;29;20441;-79
2022/08/26 06:57:23;;;;;;;9.43;1.90;;;20.30;99.90;;;;;;4898681;29;20051;-78
2022/08/26 06:59:49;;;;;;;6.57;1.48;;;20.30;99.90;;;;;;4899515;29;20040;-79
2022/08/26 07:02:14;;;;;;;7.20;1.80;;;20.20;99.90;;;;;;4882939;29;20059;-80
2022/08/26 07:04:40;;;;;;;14.88;2.42;;;20.30;99.90;;;;;;4882948;29;20628;-78
2022/08/26 07:07:06;;;;;;;18.20;2.05;;;20.20;99.90;;;;;;4895732;29;20041;-79
2022/08/26 07:09:34;;;;;;;13.93;2.28;;;20.30;99.90;;;;;;4888669;29;20048;-79
2022/08/26 07:12:00;;;;;;;14.30;2.83;;;20.30;99.90;;;;;;4864077;29;20127;-79
2022/08/26 07:14:26;;;;;;;11.38;2.25;;;20.30;99.90;;;;;;4880701;29;20053;-78
2022/08/26 07:16:52;;;;;;;11.52;1.67;;;20.20;99.90;;;;;;4880542;29;20055;-79
2022/08/26 07:19:19;;;;;;;13.05;2.13;;;20.20;99.90;;;;;;4863882;29;20053;-79
2022/08/26 07:21:44;;;;;;;7.55;1.40;;;20.20;99.90;;;;;;4880230;29;20045;-80
2022/08/26 07:24:10;;;;;;;9.80;1.80;;;20.20;99.90;;;;;;4880512;29;20120;-79
2022/08/26 07:26:36;;;;;;;9.82;2.10;;;20.10;99.90;;;;;;4880272;29;20057;-80
2022/08/26 07:29:02;;;;;;;8.48;1.73;;;20.10;99.90;;;;;;4863472;29;20053;-78
2022/08/26 07:31:30;;;;;;;10.82;2.30;;;20.10;99.90;;;;;;4871864;29;20050;-78
2022/08/26 07:33:56;;;;;;;11.70;1.42;;;20.10;99.90;;;;;;4890209;29;20052;-77
2022/08/26 07:36:23;;;;;;;6.55;1.55;;;20.10;99.90;;;;;;4899009;29;20067;-78
2022/08/26 07:38:50;;;;;;;16.52;2.10;;;20.00;99.90;;;;;;4898608;29;20135;-77
2022/08/26 07:41:18;;;;;;;6.93;1.45;;;20.00;99.90;;;;;;4882085;29;20818;-78
2022/08/26 07:43:44;;;;;;;10.02;1.83;;;20.10;99.90;;;;;;4898585;29;20048;-77
2022/08/26 07:46:13;;;;;;;9.50;1.90;;;20.10;99.90;;;;;;4898815;29;20068;-78
2022/08/26 07:48:38;;;;;;;8.32;1.58;;;20.00;99.90;;;;;;4898680;29;20064;-78
2022/08/26 07:51:04;;;;;;;11.05;1.88;;;20.10;99.90;;;;;;4898498;29;20044;-78
2022/08/26 07:53:30;;;;;;;9.48;1.60;;;20.20;99.90;;;;;;4898802;29;20153;-77
2022/08/26 07:55:57;;;;;;;9.10;2.08;;;20.10;99.90;;;;;;4894376;29;20393;-78
2022/08/26 07:58:23;;;;;;;10.38;2.00;;;20.20;99.90;;;;;;4869218;29;20378;-77
2022/08/26 08:00:48;;;;;;;24.35;7.28;;;20.20;99.90;;;;;;4872173;29;20516;-77
2022/08/26 08:03:14;;;;;;;12.35;2.08;;;20.10;99.90;;;;;;4889245;29;20047;-77
2022/08/26 08:05:40;;;;;;;10.90;2.50;;;20.10;99.90;;;;;;4900206;29;20047;-76
2022/08/26 08:08:08;;;;;;;10.20;2.20;;;20.10;99.90;;;;;;4891717;29;20035;-76
2022/08/26 08:10:35;;;;;;;8.10;1.90;;;20.10;99.90;;;;;;4891107;29;20040;-77
2022/08/26 08:13:01;;;;;;;10.68;2.28;;;20.10;99.90;;;;;;4876598;29;20445;-79
2022/08/26 08:15:29;;;;;;;8.45;1.80;;;20.20;99.90;;;;;;4917201;29;20044;-77
2022/08/26 08:17:56;;;;;;;9.52;1.60;;;20.20;99.90;;;;;;4900450;29;20048;-77
2022/08/26 08:20:22;;;;;;;7.65;1.92;;;20.20;99.90;;;;;;4916922;29;20060;-77
2022/08/26 08:22:48;;;;;;;7.07;1.90;;;20.10;99.90;;;;;;4899661;29;20411;-78
2022/08/26 08:25:14;;;;;;;9.88;2.10;;;20.10;99.90;;;;;;4899938;29;20108;-79
2022/08/26 08:27:43;;;;;;;9.25;1.67;;;20.10;99.90;;;;;;4911946;29;20407;-77
2022/08/26 08:30:11;;;;;;;10.50;1.50;;;20.10;99.90;;;;;;4909849;29;20051;-77
2022/08/26 08:32:37;;;;;;;7.20;1.58;;;20.10;99.90;;;;;;4915184;29;20119;-78
2022/08/26 08:35:07;;;;;;;9.50;2.30;;;20.10;99.90;;;;;;4898971;29;20183;-77
2022/08/26 08:37:33;;;;;;;11.20;2.05;;;20.10;99.90;;;;;;4899867;29;20044;-77
2022/08/26 08:39:58;;;;;;;9.00;1.70;;;20.10;99.90;;;;;;4899833;29;20104;-78
2022/08/26 08:42:30;;;;;;;7.57;1.65;;;20.10;99.90;;;;;;4899913;29;20036;-78
2022/08/26 08:44:58;;;;;;;9.55;1.83;;;20.10;99.90;;;;;;4917063;29;20130;-80
2022/08/26 08:47:41;;;;;;;7.72;1.58;;;20.20;99.90;;;;;;4900085;29;20131;-81
2022/08/26 08:50:19;;;;;;;6.93;1.48;;;20.20;99.90;;;;;;4900220;29;20059;-77
2022/08/26 08:53:15;;;;;;;8.90;1.60;;;20.10;99.90;;;;;;4899126;29;20048;-77
2022/08/26 08:56:02;;;;;;;6.57;1.25;;;20.20;99.90;;;;;;4912471;29;20048;-89
2022/08/26 08:58:56;;;;;;;13.35;3.45;;;20.20;99.90;;;;;;4900156;29;20052;-90
2022/08/26 09:01:50;;;;;;;7.97;1.60;;;20.30;99.90;;;;;;4899790;29;20083;-77
2022/08/26 09:04:43;;;;;;;7.93;1.42;;;20.20;99.90;;;;;;4916812;29;20040;-78
2022/08/26 09:07:10;;;;;;;;;;;20.30;99.90;;;;;;4917205;29;20111;-77
2022/08/26 09:09:46;;;;;;;10.68;1.58;;;20.30;99.90;;;;;;4899760;29;19923;-76
2022/08/26 09:12:23;;;;;;;8.32;1.65;;;20.30;99.90;;;;;;4916661;29;20048;-78
2022/08/26 09:14:50;;;;;;;9.98;1.45;;;20.40;99.90;;;;;;4916717;29;20080;-78
2022/08/26 09:17:45;;;;;;;13.50;1.95;;;20.40;99.90;;;;;;4916579;29;20080;-79
2022/08/26 09:20:35;;;;;;;11.32;1.85;;;20.40;99.90;;;;;;4916548;29;20064;-77
2022/08/26 09:23:04;;;;;;;11.48;1.63;;;20.40;99.90;;;;;;4916780;29;20172;-84
2022/08/26 09:25:30;;;;;;;9.93;1.23;;;20.40;99.90;;;;;;4898973;29;20068;-78
2022/08/26 09:27:55;;;;;;;17.90;1.80;;;20.30;99.90;;;;;;4898179;29;20056;-77
2022/08/26 09:30:34;;;;;;;7.20;1.27;;;20.30;99.90;;;;;;4899944;29;20107;-79
2022/08/26 09:33:03;;;;;;;8.63;1.92;;;20.30;99.90;;;;;;4899832;29;20056;-77
2022/08/26 09:35:32;;;;;;;12.73;1.58;;;20.40;99.90;;;;;;4917628;29;20500;-79
2022/08/26 09:37:59;;;;;;;14.82;1.95;;;20.30;99.90;;;;;;4919807;29;20135;-78
2022/08/26 09:40:26;;;;;;;11.73;1.73;;;20.30;99.90;;;;;;4919903;29;20076;-77
2022/08/26 09:43:12;;;;;;;10.00;1.50;;;20.20;99.90;;;;;;4919705;29;20107;-80
2022/08/26 09:45:40;;;;;;;7.05;1.20;;;20.30;99.90;;;;;;4902668;29;20052;-81
2022/08/26 09:48:06;;;;;;;8.85;1.38;;;20.30;99.90;;;;;;4919788;29;20074;-79
2022/08/26 09:50:38;;;;;;;8.25;1.25;;;20.20;99.90;;;;;;4919543;29;20483;-77
2022/08/26 09:53:27;;;;;;;7.18;1.55;;;20.20;99.90;;;;;;4902737;29;20054;-79
2022/08/26 09:56:24;;;;;;;12.93;1.70;;;20.30;99.90;;;;;;4902758;29;20448;-79
2022/08/26 09:58:50;;;;;;;9.27;2.00;;;20.20;99.90;;;;;;4902897;29;20066;-92
2022/08/26 10:01:22;;;;;;;8.23;1.30;;;20.30;99.90;;;;;;4902219;29;20547;-91
2022/08/26 10:03:49;;;;;;;10.37;1.40;;;20.20;99.90;;;;;;4902760;29;20040;-86
2022/08/26 10:06:23;;;;;;;7.68;1.10;;;20.20;99.90;;;;;;4902784;29;20048;-87
2022/08/26 10:08:56;;;;;;;9.00;1.52;;;20.20;99.90;;;;;;4919531;29;20064;-85
2022/08/26 10:11:37;;;;;;;7.63;1.50;;;20.20;99.90;;;;;;4902682;29;20131;-84
2022/08/26 10:14:23;;;;;;;7.10;1.02;;;20.20;99.90;;;;;;4919403;29;20052;-86
2022/08/26 10:17:04;;;;;;;4.88;1.20;;;20.20;99.90;;;;;;4902720;29;20681;-84
2022/08/26 10:20:12;;;;;;;7.57;1.70;;;20.10;99.90;;;;;;4919173;29;20176;-76
2022/08/26 10:22:48;;;;;;;9.05;1.33;;;20.20;99.90;;;;;;4903491;29;20414;-75
2022/08/26 10:25:23;;;;;;;9.75;1.48;;;20.20;99.90;;;;;;4919224;29;20056;-85
2022/08/26 10:31:06;;;;;;;7.40;1.42;;;20.10;99.90;;;;;;5380122;23;20059;-78
2022/08/26 10:36:49;;;;;;;12.60;2.15;;;20.10;99.90;;;;;;3575606;27;20492;-79
2022/08/26 10:39:33;;;;;;;11.48;2.05;;;19.90;99.90;;;;;;4892914;29;20103;-79
2022/08/26 10:42:04;;;;;;;16.95;3.15;;;19.90;99.90;;;;;;4898619;29;20104;-78
2022/08/26 10:44:37;;;;;;;12.02;2.70;;;19.90;99.90;;;;;;4900214;29;20052;-79
2022/08/26 10:47:17;;;;;;;12.50;2.65;;;19.90;99.90;;;;;;4875655;29;20049;-80
2022/08/26 10:49:46;;;;;;;8.70;2.28;;;19.90;99.90;;;;;;4899084;29;20048;-80
2022/08/26 10:53:00;;;;;;;9.90;2.15;;;19.90;99.90;;;;;;4900066;29;20123;-89
2022/08/26 10:55:41;;;;;;;8.07;1.92;;;19.90;99.90;;;;;;4890597;29;20057;-79
2022/08/26 10:58:37;;;;;;;10.70;1.85;;;19.80;99.90;;;;;;4893117;29;20080;-77
2022/08/26 11:04:10;;;;;;;4.70;1.35;;;19.80;99.90;;;;;;5438236;23;20469;-87
2022/08/26 11:06:36;;;;;;;8.52;1.98;;;19.70;99.90;;;;;;4883108;29;20444;-79
2022/08/26 11:09:25;;;;;;;8.07;2.38;;;19.70;99.90;;;;;;4899872;29;20087;-79
2022/08/26 11:11:50;;;;;;;7.90;2.03;;;19.80;99.90;;;;;;4885518;29;20541;-89
2022/08/26 11:14:25;;;;;;;7.35;1.55;;;19.70;99.90;;;;;;4882784;29;20056;-86
2022/08/26 11:16:56;;;;;;;6.88;1.38;;;19.70;99.90;;;;;;4899418;29;20084;-85
2022/08/26 11:19:53;;;;;;;5.60;1.40;;;19.70;99.90;;;;;;4882327;29;20409;-86
2022/08/26 11:22:37;;;;;;;12.18;1.92;;;19.70;99.90;;;;;;4881720;29;20132;-84
2022/08/26 11:25:14;;;;;;;7.97;1.77;;;19.70;99.90;;;;;;4882361;29;20049;-78
2022/08/26 11:27:46;;;;;;;9.77;2.00;;;19.70;99.90;;;;;;4882600;29;20056;-86
2022/08/26 11:30:14;;;;;;;6.55;1.80;;;19.70;99.90;;;;;;4882287;29;20085;-88
2022/08/26 11:32:40;;;;;;;10.38;2.35;;;19.60;99.90;;;;;;4898806;29;20095;-86
2022/08/26 11:35:10;;;;;;;8.25;1.80;;;19.60;99.90;;;;;;4882169;29;20081;-80
2022/08/26 11:37:39;;;;;;;7.85;2.30;;;19.70;99.90;;;;;;4882161;29;20060;-85
2022/08/26 11:40:12;;;;;;;5.80;1.98;;;19.70;99.90;;;;;;4881979;29;20049;-83
2022/08/26 11:42:47;;;;;;;5.80;1.55;;;19.60;99.90;;;;;;4882206;29;20054;-84
2022/08/26 11:45:40;;;;;;;11.30;2.10;;;19.60;99.90;;;;;;4898732;29;20092;-87
2022/08/26 11:48:29;;;;;;;12.67;2.07;;;19.60;99.90;;;;;;4882058;29;20120;-85
2022/08/26 11:51:18;;;;;;;6.85;1.92;;;19.60;99.90;;;;;;4898798;29;20051;-82
2022/08/26 11:53:43;;;;;;;5.03;2.10;;;19.50;99.90;;;;;;4886867;29;20139;-87
2022/08/26 11:56:32;;;;;;;4.57;1.80;;;19.60;99.90;;;;;;4881675;29;20139;-85
2022/08/26 11:59:01;;;;;;;6.35;1.80;;;19.60;99.90;;;;;;4880990;29;20052;-84
2022/08/26 12:01:34;;;;;;;6.43;1.80;;;19.60;99.90;;;;;;4881688;29;20052;-83
2022/08/26 12:04:03;;;;;;;6.35;2.38;;;19.60;99.90;;;;;;4881618;29;20563;-79
2022/08/26 12:06:35;;;;;;;5.80;1.55;;;19.60;99.90;;;;;;4898556;29;20060;-77
2022/08/26 12:09:07;;;;;;;10.07;1.70;;;19.60;99.90;;;;;;4898290;29;20511;-76
2022/08/26 12:11:35;;;;;;;6.50;1.50;;;19.60;99.90;;;;;;4898703;29;20044;-77
2022/08/26 12:14:07;;;;;;;6.68;1.60;;;19.50;99.90;;;;;;4881467;29;20055;-86
2022/08/26 12:16:38;;;;;;;10.63;2.08;;;19.60;99.90;;;;;;4898357;29;20567;-76
2022/08/26 12:19:25;;;;;;;8.65;2.20;;;19.60;99.90;;;;;;4898627;29;20044;-77
2022/08/26 12:21:55;;;;;;;8.32;1.58;;;19.60;99.90;;;;;;4898475;29;20123;-76
2022/08/26 12:24:30;;;;;;;11.57;1.92;;;19.70;99.90;;;;;;4898147;29;20053;-76
2022/08/26 12:27:22;;;;;;;7.70;1.58;;;19.70;99.90;;;;;;4898143;29;20088;-77
2022/08/26 12:30:11;;;;;;;9.88;1.90;;;19.70;99.90;;;;;;4881122;29;20056;-76
2022/08/26 12:32:40;;;;;;;7.57;1.80;;;19.60;99.90;;;;;;4881223;29;20048;-76
2022/08/26 12:35:11;;;;;;;10.45;2.55;;;19.70;99.90;;;;;;4898255;29;20041;-76
2022/08/26 12:37:40;;;;;;;9.90;1.90;;;19.70;99.90;;;;;;4897857;29;20451;-76
2022/08/26 12:40:45;;;;;;;7.30;1.83;;;19.70;99.90;;;;;;4897842;29;20123;-76
2022/08/26 12:43:42;;;;;;;6.80;1.98;;;19.80;99.90;;;;;;4880807;29;20136;-77
2022/08/26 12:46:27;;;;;;;6.47;2.22;;;19.80;99.90;;;;;;4896263;29;20493;-77
2022/08/26 12:48:53;;;;;;;7.30;1.90;;;19.80;99.90;;;;;;4881106;29;20055;-76
2022/08/26 12:51:29;;;;;;;11.77;2.22;;;19.80;99.90;;;;;;4898068;29;20048;-80
2022/08/26 12:53:58;;;;;;;6.32;1.77;;;19.80;99.90;;;;;;4880512;29;20053;-77
2022/08/26 12:56:32;;;;;;;7.00;1.52;;;19.80;99.90;;;;;;4881066;29;20056;-78
2022/08/26 12:59:17;;;;;;;4.65;1.40;;;19.80;99.90;;;;;;4881169;29;20095;-77
2022/08/26 13:01:44;;;;;;;9.50;1.65;;;19.80;99.90;;;;;;4897921;29;20591;-77
2022/08/26 13:04:34;;;;;;;8.02;1.50;;;19.80;99.90;;;;;;4896441;29;20080;-76
2022/08/26 13:07:20;;;;;;;6.63;1.33;;;19.80;99.90;;;;;;4902901;29;20104;-76
2022/08/26 13:09:46;;;;;;;6.40;1.50;;;19.80;99.90;;;;;;4881146;29;20049;-76
2022/08/26 13:12:33;;;;;;;5.85;1.20;;;19.90;99.90;;;;;;4882694;29;20053;-77
2022/08/26 13:15:00;;;;;;;6.28;1.58;;;19.90;99.90;;;;;;4882849;29;20045;-77
2022/08/26 13:17:28;;;;;;;6.13;1.77;;;19.90;99.90;;;;;;4882871;29;20101;-77
2022/08/26 13:19:54;;;;;;;8.15;1.30;;;20.00;99.90;;;;;;4882732;29;20057;-77